createdAt,value
2018-01-02T00:02:00.833Z,7.60
2018-01-02T00:04:26.752Z,7.60
2018-01-02T00:06:52.672Z,7.50
2018-01-02T00:09:18.636Z,7.50
2018-01-02T00:11:44.566Z,7.60
2018-01-02T00:14:12.800Z,7.60
2018-01-02T00:16:39.459Z,7.60
2018-01-02T00:19:06.197Z,7.60
2018-01-02T00:21:32.097Z,7.60
2018-01-02T00:23:58.827Z,7.50
2018-01-02T00:26:24.775Z,7.50
2018-01-02T00:28:52.228Z,7.50
2018-01-02T00:31:18.170Z,7.40
2018-01-02T00:33:44.111Z,7.40
2018-01-02T00:36:10.026Z,7.40
2018-01-02T00:38:35.923Z,7.40
2018-01-02T00:41:01.901Z,7.30
2018-01-02T00:43:28.466Z,7.30
2018-01-02T00:45:54.388Z,7.30
2018-01-02T00:48:21.024Z,7.20
2018-01-02T00:50:47.078Z,7.20
2018-01-02T00:53:13.003Z,7.20
2018-01-02T00:55:38.900Z,7.20
2018-01-02T00:58:05.531Z,7.10
2018-01-02T01:00:31.446Z,7.00
2018-01-02T01:02:58.102Z,7.10
2018-01-02T01:05:24.028Z,7.10
2018-01-02T01:07:49.934Z,7.10
2018-01-02T01:10:16.576Z,7.20
2018-01-02T01:12:42.506Z,7.20
2018-01-02T01:15:08.415Z,7.20
2018-01-02T01:17:35.048Z,7.20
2018-01-02T01:20:00.950Z,7.20
2018-01-02T01:22:26.887Z,7.20
2018-01-02T01:24:53.520Z,7.30
2018-01-02T01:27:20.170Z,7.20
2018-01-02T01:29:46.123Z,7.20
2018-01-02T01:32:12.810Z,7.20
2018-01-02T01:34:39.494Z,7.30
2018-01-02T01:37:05.475Z,7.20
2018-01-02T01:39:32.123Z,7.20
2018-01-02T01:41:58.031Z,7.20
2018-01-02T01:44:24.682Z,7.10
2018-01-02T01:46:50.602Z,7.10
2018-01-02T01:49:16.506Z,7.10
2018-01-02T01:51:43.197Z,7.10
2018-01-02T01:54:09.150Z,7.00
2018-01-02T01:56:35.257Z,7.00
2018-01-02T01:59:01.212Z,7.10
2018-01-02T02:01:27.934Z,7.00
2018-01-02T02:03:54.589Z,7.00
2018-01-02T02:06:21.249Z,7.00
2018-01-02T02:08:47.152Z,6.90
2018-01-02T02:11:13.815Z,7.00
2018-01-02T02:13:39.745Z,6.90
2018-01-02T02:16:05.708Z,7.00
2018-01-02T02:18:31.614Z,7.00
2018-01-02T02:20:57.534Z,6.90
2018-01-02T02:23:23.417Z,6.90
2018-01-02T02:25:49.325Z,6.90
2018-01-02T02:28:15.226Z,6.90
2018-01-02T02:30:41.854Z,6.80
2018-01-02T02:33:08.596Z,6.80
2018-01-02T02:35:35.242Z,6.80
2018-01-02T02:38:01.337Z,6.80
2018-01-02T02:40:27.302Z,6.80
2018-01-02T02:42:53.206Z,6.80
2018-01-02T02:45:19.182Z,6.70
2018-01-02T02:47:45.163Z,6.70
2018-01-02T02:50:11.013Z,6.70
2018-01-02T02:52:36.940Z,6.70
2018-01-02T02:55:02.859Z,6.70
2018-01-02T02:57:28.787Z,6.70
2018-01-02T02:59:56.221Z,6.70
2018-01-02T03:02:22.142Z,6.70
2018-01-02T03:04:48.146Z,6.80
2018-01-02T03:07:14.119Z,6.80
2018-01-02T03:09:40.046Z,6.80
2018-01-02T03:12:05.950Z,6.80
2018-01-02T03:14:31.963Z,6.80
2018-01-02T03:16:57.865Z,6.80
2018-01-02T03:19:23.785Z,6.90
2018-01-02T03:21:49.684Z,6.90
2018-01-02T03:24:15.577Z,6.90
2018-01-02T03:26:41.507Z,6.90
2018-01-02T03:29:08.165Z,6.90
2018-01-02T03:31:34.094Z,6.90
2018-01-02T03:34:00.029Z,6.90
2018-01-02T03:36:26.772Z,6.90
2018-01-02T03:38:52.718Z,6.90
2018-01-02T03:41:18.666Z,6.90
2018-01-02T03:43:44.568Z,6.80
2018-01-02T03:46:10.502Z,6.80
2018-01-02T03:48:37.240Z,6.80
2018-01-02T03:51:04.138Z,6.70
2018-01-02T03:53:30.050Z,6.70
2018-01-02T03:55:55.959Z,6.70
2018-01-02T03:58:21.870Z,6.70
2018-01-02T04:00:47.781Z,6.60
2018-01-02T04:03:13.717Z,6.50
2018-01-02T04:05:39.711Z,6.60
2018-01-02T04:08:06.377Z,6.60
2018-01-02T04:10:32.300Z,6.50
2018-01-02T04:12:58.186Z,6.60
2018-01-02T04:15:24.826Z,6.50
2018-01-02T04:17:51.538Z,6.50
2018-01-02T04:20:17.462Z,6.40
2018-01-02T04:22:43.380Z,6.50
2018-01-02T04:25:09.308Z,6.50
2018-01-02T04:27:35.226Z,6.50
2018-01-02T04:30:01.202Z,6.50
2018-01-02T04:32:27.121Z,6.50
2018-01-02T04:34:53.020Z,6.50
2018-01-02T04:37:19.687Z,6.40
2018-01-02T04:39:45.597Z,6.40
2018-01-02T04:42:11.508Z,6.40
2018-01-02T04:44:37.468Z,6.40
2018-01-02T04:47:03.377Z,6.40
2018-01-02T04:49:29.296Z,6.40
2018-01-02T04:51:55.254Z,6.40
2018-01-02T04:54:21.211Z,6.40
2018-01-02T04:56:47.093Z,6.40
2018-01-02T04:59:13.020Z,6.40
2018-01-02T05:01:38.988Z,6.40
2018-01-02T05:04:05.044Z,6.40
2018-01-02T05:06:31.031Z,6.40
2018-01-02T05:08:56.942Z,6.40
2018-01-02T05:11:22.903Z,6.40
2018-01-02T05:13:48.811Z,6.30
2018-01-02T05:16:14.695Z,6.30
2018-01-02T05:18:40.632Z,6.30
2018-01-02T05:21:07.024Z,6.30
2018-01-02T05:23:33.693Z,6.30
2018-01-02T05:25:59.819Z,6.30
2018-01-02T05:28:25.812Z,6.30
2018-01-02T05:30:52.475Z,6.40
2018-01-02T05:33:18.389Z,6.30
2018-01-02T05:35:44.338Z,6.40
2018-01-02T05:38:11.226Z,6.40
2018-01-02T05:40:37.986Z,6.50
2018-01-02T05:43:03.885Z,6.40
2018-01-02T05:45:29.798Z,6.50
2018-01-02T05:47:55.744Z,6.30
2018-01-02T05:50:21.657Z,6.50
2018-01-02T05:52:48.294Z,6.50
2018-01-02T05:55:14.196Z,6.40
2018-01-02T05:57:40.117Z,6.50
2018-01-02T06:00:06.980Z,6.50
2018-01-02T06:02:33.656Z,6.50
2018-01-02T06:04:59.773Z,6.50
2018-01-02T06:07:25.709Z,6.50
2018-01-02T06:09:51.619Z,6.50
2018-01-02T06:12:17.523Z,6.50
2018-01-02T06:14:43.445Z,6.50
2018-01-02T06:17:09.462Z,6.60
2018-01-02T06:19:35.390Z,6.60
2018-01-02T06:22:01.374Z,6.60
2018-01-02T06:24:27.398Z,6.60
2018-01-02T06:26:53.348Z,6.60
2018-01-02T06:29:19.258Z,6.60
2018-01-02T06:31:45.950Z,6.60
2018-01-02T06:34:11.890Z,6.60
2018-01-02T06:36:37.823Z,6.60
2018-01-02T06:39:04.458Z,6.60
2018-01-02T06:41:31.121Z,6.60
2018-01-02T06:43:57.030Z,6.60
2018-01-02T06:46:22.966Z,6.60
2018-01-02T06:48:48.879Z,6.60
2018-01-02T06:51:14.841Z,6.60
2018-01-02T06:53:40.762Z,6.60
2018-01-02T06:56:06.670Z,6.70
2018-01-02T06:58:32.593Z,6.60
2018-01-02T07:00:58.527Z,6.60
2018-01-02T07:03:25.026Z,6.60
2018-01-02T07:05:50.939Z,6.60
2018-01-02T07:08:16.881Z,6.60
2018-01-02T07:10:42.829Z,6.60
2018-01-02T07:13:08.743Z,6.60
2018-01-02T07:15:34.686Z,6.70
2018-01-02T07:18:01.054Z,6.70
2018-01-02T07:20:26.990Z,6.70
2018-01-02T07:22:52.898Z,6.70
2018-01-02T07:25:18.803Z,6.70
2018-01-02T07:27:44.770Z,6.70
2018-01-02T07:30:10.707Z,6.70
2018-01-02T07:32:36.658Z,6.80
2018-01-02T07:35:03.333Z,6.70
2018-01-02T07:37:30.060Z,6.60
2018-01-02T07:39:55.984Z,6.70
2018-01-02T07:42:21.913Z,6.60
2018-01-02T07:44:47.889Z,6.60
2018-01-02T07:47:14.534Z,6.70
2018-01-02T07:49:41.198Z,6.70
2018-01-02T07:52:07.117Z,6.60
2018-01-02T07:54:33.235Z,6.70
2018-01-02T07:56:59.132Z,6.70
2018-01-02T07:59:25.800Z,6.60
2018-01-02T08:01:52.618Z,6.60
2018-01-02T08:04:19.385Z,6.60
2018-01-02T08:06:45.301Z,6.50
2018-01-02T08:09:11.277Z,6.50
2018-01-02T08:11:38.092Z,6.70
2018-01-02T08:14:04.024Z,6.60
2018-01-02T08:16:29.939Z,6.50
2018-01-02T08:18:55.879Z,6.50
2018-01-02T08:21:21.772Z,6.50
2018-01-02T08:23:47.724Z,6.50
2018-01-02T08:26:13.657Z,6.60
2018-01-02T08:28:40.322Z,6.70
2018-01-02T08:31:06.235Z,6.60
2018-01-02T08:33:32.187Z,6.70
2018-01-02T08:35:58.162Z,6.70
2018-01-02T08:38:24.821Z,6.70
2018-01-02T08:40:50.777Z,6.70
2018-01-02T08:43:16.736Z,6.70
2018-01-02T08:45:43.392Z,6.80
2018-01-02T08:48:09.337Z,6.70
2018-01-02T08:50:35.254Z,6.80
2018-01-02T08:53:01.190Z,6.80
2018-01-02T08:55:27.151Z,6.80
2018-01-02T08:57:53.074Z,6.70
2018-01-02T09:00:19.790Z,6.70
2018-01-02T09:02:45.745Z,6.60
2018-01-02T09:05:11.671Z,6.70
2018-01-02T09:07:37.570Z,6.70
2018-01-02T09:10:03.554Z,6.60
2018-01-02T09:12:35.683Z,6.60
2018-01-02T09:15:01.760Z,6.60
2018-01-02T09:17:27.674Z,6.60
2018-01-02T09:19:53.589Z,6.60
2018-01-02T09:22:19.556Z,6.70
2018-01-02T09:24:46.262Z,6.70
2018-01-02T09:27:12.182Z,6.70
2018-01-02T09:29:38.148Z,6.70
2018-01-02T09:32:04.109Z,6.70
2018-01-02T09:34:30.025Z,6.70
2018-01-02T09:36:55.968Z,6.80
2018-01-02T09:39:22.905Z,6.80
2018-01-02T09:41:48.826Z,6.90
2018-01-02T09:44:14.735Z,6.90
2018-01-02T09:46:41.236Z,6.90
2018-01-02T09:49:07.221Z,6.90
2018-01-02T09:51:33.229Z,6.90
2018-01-02T09:53:59.153Z,6.90
2018-01-02T09:56:26.963Z,6.90
2018-01-02T09:58:53.436Z,7.10
2018-01-02T10:01:19.580Z,7.20
2018-01-02T10:03:46.135Z,7.20
2018-01-02T10:06:12.478Z,7.30
2018-01-02T10:08:38.409Z,7.20
2018-01-02T10:11:04.643Z,7.30
2018-01-02T10:13:30.810Z,7.30
2018-01-02T10:15:56.740Z,7.30
2018-01-02T10:18:22.731Z,7.30
2018-01-02T10:20:49.371Z,7.20
2018-01-02T10:23:16.253Z,7.20
2018-01-02T10:25:42.254Z,7.20
2018-01-02T10:28:08.190Z,7.20
2018-01-02T10:30:34.126Z,7.20
2018-01-02T10:33:00.062Z,7.30
2018-01-02T10:35:28.016Z,7.30
2018-01-02T10:37:53.956Z,7.30
2018-01-02T10:40:19.844Z,7.30
2018-01-02T10:42:46.482Z,7.30
2018-01-02T10:45:13.156Z,7.30
2018-01-02T10:47:39.766Z,7.30
2018-01-02T10:50:06.430Z,7.30
2018-01-02T10:52:33.815Z,7.30
2018-01-02T10:55:00.335Z,7.30
2018-01-02T10:57:27.249Z,7.40
2018-01-02T10:59:54.008Z,7.30
2018-01-02T11:02:19.941Z,7.40
2018-01-02T11:04:45.908Z,7.40
2018-01-02T11:07:11.844Z,7.40
2018-01-02T11:09:37.838Z,7.40
2018-01-02T11:12:06.262Z,7.40
2018-01-02T11:14:39.238Z,7.30
2018-01-02T11:17:08.666Z,7.30
2018-01-02T11:19:35.212Z,7.40
2018-01-02T11:22:01.158Z,7.30
2018-01-02T11:24:27.192Z,7.40
2018-01-02T11:26:53.114Z,7.40
2018-01-02T11:29:21.790Z,7.50
2018-01-02T11:31:47.720Z,7.50
2018-01-02T11:34:16.245Z,7.50
2018-01-02T11:36:43.113Z,7.60
2018-01-02T11:39:09.073Z,7.60
2018-01-02T11:41:35.751Z,7.70
2018-01-02T11:44:02.387Z,7.50
2018-01-02T11:46:28.285Z,7.70
2018-01-02T11:48:54.241Z,7.70
2018-01-02T11:51:20.135Z,7.70
2018-01-02T11:53:46.041Z,7.70
2018-01-02T11:56:12.754Z,7.80
2018-01-02T11:58:41.505Z,7.80
2018-01-02T12:01:08.049Z,7.90
2018-01-02T12:03:34.548Z,7.80
2018-01-02T12:06:03.833Z,8.00
2018-01-02T12:08:29.744Z,7.90
2018-01-02T12:10:55.681Z,7.80
2018-01-02T12:13:21.602Z,7.80
2018-01-02T12:15:47.530Z,7.70
2018-01-02T12:18:13.559Z,7.80
2018-01-02T12:20:39.485Z,7.90
2018-01-02T12:23:05.411Z,7.70
2018-01-02T12:25:31.344Z,7.70
2018-01-02T12:27:57.243Z,7.80
2018-01-02T12:30:23.185Z,7.70
2018-01-02T12:32:49.091Z,7.70
2018-01-02T12:35:15.085Z,7.70
2018-01-02T12:37:40.994Z,7.60
2018-01-02T12:40:07.734Z,7.60
2018-01-02T12:42:34.379Z,7.60
2018-01-02T12:45:00.316Z,7.60
2018-01-02T12:47:26.307Z,7.70
2018-01-02T12:49:52.967Z,7.70
2018-01-02T12:52:20.448Z,7.60
2018-01-02T12:54:48.103Z,7.60
2018-01-02T12:57:14.864Z,7.60
2018-01-02T12:59:44.090Z,7.40
2018-01-02T13:02:10.101Z,7.50
2018-01-02T13:04:36.028Z,7.50
2018-01-02T13:07:01.940Z,7.40
2018-01-02T13:09:27.928Z,7.50
2018-01-02T13:11:53.855Z,7.50
2018-01-02T13:14:19.790Z,7.50
2018-01-02T13:16:45.693Z,7.50
2018-01-02T13:19:11.610Z,7.50
2018-01-02T13:21:38.030Z,7.60
2018-01-02T13:24:04.051Z,7.70
2018-01-02T13:26:29.982Z,7.70
2018-01-02T13:28:55.898Z,7.60
2018-01-02T13:31:21.789Z,7.60
2018-01-02T13:33:47.672Z,7.60
2018-01-02T13:36:14.948Z,7.40
2018-01-02T13:38:41.598Z,7.30
2018-01-02T13:41:08.925Z,7.30
2018-01-02T13:43:34.901Z,7.30
2018-01-02T13:46:00.865Z,7.20
2018-01-02T13:48:26.800Z,7.30
2018-01-02T13:50:52.931Z,7.30
2018-01-02T13:53:18.902Z,7.30
2018-01-02T13:55:44.802Z,7.30
2018-01-02T13:58:10.701Z,7.30
2018-01-02T14:00:37.372Z,7.40
2018-01-02T14:03:03.339Z,7.30
2018-01-02T14:05:29.282Z,7.40
2018-01-02T14:07:55.955Z,7.40
2018-01-02T14:10:21.867Z,7.40
2018-01-02T14:12:47.796Z,7.50
2018-01-02T14:15:13.719Z,7.60
2018-01-02T14:17:39.615Z,7.50
2018-01-02T14:20:05.542Z,7.50
2018-01-02T14:22:31.530Z,7.60
2018-01-02T14:24:58.180Z,7.80
2018-01-02T14:27:24.845Z,7.70
2018-01-02T14:29:50.774Z,7.70
2018-01-02T14:32:16.730Z,7.80
2018-01-02T14:34:42.663Z,7.80
2018-01-02T14:37:09.403Z,7.80
2018-01-02T14:39:36.046Z,7.80
2018-01-02T14:42:02.735Z,7.90
2018-01-02T14:44:28.654Z,7.80
2018-01-02T14:46:55.125Z,7.80
2018-01-02T14:49:21.034Z,7.80
2018-01-02T14:51:46.926Z,7.80
2018-01-02T14:54:13.794Z,7.80
2018-01-02T14:56:39.783Z,7.80
2018-01-02T14:59:05.728Z,7.80
2018-01-02T15:01:32.587Z,7.70
2018-01-02T15:03:58.488Z,7.70
2018-01-02T15:06:24.408Z,7.60
2018-01-02T15:08:50.334Z,7.60
2018-01-02T15:11:16.688Z,7.60
2018-01-02T15:13:44.797Z,7.60
2018-01-02T15:16:10.742Z,7.60
2018-01-02T15:18:37.497Z,7.70
2018-01-02T15:21:03.690Z,7.60
2018-01-02T15:23:29.680Z,7.60
2018-01-02T15:25:56.744Z,7.50
2018-01-02T15:28:22.666Z,7.50
2018-01-02T15:30:48.649Z,7.50
2018-01-02T15:33:14.663Z,7.50
2018-01-02T15:35:40.579Z,7.50
2018-01-02T15:38:06.509Z,7.40
2018-01-02T15:40:32.443Z,7.40
2018-01-02T15:42:58.442Z,7.40
2018-01-02T15:45:24.358Z,7.40
2018-01-02T15:47:50.271Z,7.40
2018-01-02T15:50:16.478Z,7.40
2018-01-02T15:52:42.402Z,7.40
2018-01-02T15:55:08.370Z,7.40
2018-01-02T15:57:34.313Z,7.30
2018-01-02T16:00:00.230Z,7.30
2018-01-02T16:02:26.223Z,7.30
2018-01-02T16:04:52.251Z,7.30
2018-01-02T16:07:18.163Z,7.30
2018-01-02T16:09:45.070Z,7.30
2018-01-02T16:12:11.046Z,7.30
2018-01-02T16:14:38.233Z,7.30
2018-01-02T16:17:04.241Z,7.30
2018-01-02T16:19:30.851Z,7.20
2018-01-02T16:21:58.098Z,7.30
2018-01-02T16:24:24.013Z,7.20
2018-01-02T16:26:49.913Z,7.20
2018-01-02T16:29:15.830Z,7.20
2018-01-02T16:31:41.815Z,7.20
2018-01-02T16:34:07.835Z,7.20
2018-01-02T16:36:34.917Z,7.20
2018-01-02T16:39:00.813Z,7.20
2018-01-02T16:41:26.746Z,7.20
2018-01-02T16:43:52.699Z,7.10
2018-01-02T16:46:19.566Z,7.10
2018-01-02T16:48:47.487Z,7.00
2018-01-02T16:51:16.091Z,7.00
2018-01-02T16:53:43.838Z,7.00
2018-01-02T16:56:09.797Z,7.00
2018-01-02T16:58:36.603Z,6.90
2018-01-02T17:01:03.971Z,7.00
2018-01-02T17:03:30.659Z,7.00
2018-01-02T17:05:56.575Z,7.00
2018-01-02T17:08:23.376Z,6.90
2018-01-02T17:10:51.440Z,6.90
2018-01-02T17:13:17.357Z,6.90
2018-01-02T17:15:43.338Z,6.90
2018-01-02T17:18:09.301Z,6.90
2018-01-02T17:20:35.331Z,6.90
2018-01-02T17:23:04.683Z,6.80
2018-01-02T17:25:30.662Z,6.90
2018-01-02T17:27:56.633Z,6.90
2018-01-02T17:30:22.550Z,6.80
2018-01-02T17:32:54.162Z,6.80
2018-01-02T17:35:24.534Z,6.80
2018-01-02T17:37:50.465Z,6.70
2018-01-02T17:40:21.496Z,6.80
2018-01-02T17:42:50.395Z,6.80
2018-01-02T17:45:21.584Z,6.80
2018-01-02T17:47:48.453Z,6.90
2018-01-02T17:50:15.091Z,6.90
2018-01-02T17:52:46.660Z,6.90
2018-01-02T17:55:13.683Z,6.90
2018-01-02T17:57:41.263Z,6.90
2018-01-02T18:00:09.874Z,6.80
2018-01-02T18:02:36.784Z,6.80
2018-01-02T18:05:04.602Z,6.80
2018-01-02T18:07:31.341Z,6.80
2018-01-02T18:09:57.659Z,6.80
2018-01-02T18:12:24.471Z,6.80
2018-01-02T18:14:50.381Z,6.80
2018-01-02T18:17:16.553Z,6.80
2018-01-02T18:19:47.191Z,6.70
2018-01-02T18:22:13.210Z,6.70
2018-01-02T18:24:42.173Z,6.80
2018-01-02T18:27:09.295Z,6.80
2018-01-02T18:29:35.313Z,6.80
2018-01-02T18:32:02.154Z,6.80
2018-01-02T18:34:28.113Z,6.70
2018-01-02T18:36:54.153Z,6.70
2018-01-02T18:39:20.996Z,6.70
2018-01-02T18:41:46.966Z,6.70
2018-01-02T18:44:12.856Z,6.70
2018-01-02T18:46:38.766Z,6.70
2018-01-02T18:49:05.536Z,6.70
2018-01-02T18:51:31.499Z,6.70
2018-01-02T18:53:57.445Z,6.80
2018-01-02T18:56:23.378Z,6.80
2018-01-02T18:58:49.327Z,6.80
2018-01-02T19:01:15.740Z,6.80
2018-01-02T19:03:42.425Z,6.80
2018-01-02T19:06:08.363Z,6.80
2018-01-02T19:08:34.239Z,6.90
2018-01-02T19:11:00.135Z,6.90
2018-01-02T19:13:27.586Z,6.90
2018-01-02T19:15:54.333Z,7.00
2018-01-02T19:18:21.184Z,6.90
2018-01-02T19:20:47.142Z,7.00
2018-01-02T19:23:13.128Z,7.00
2018-01-02T19:25:39.715Z,7.00
2018-01-02T19:28:06.223Z,7.10
2018-01-02T19:30:33.015Z,7.10
2018-01-02T19:32:59.684Z,7.10
2018-01-02T19:35:25.693Z,7.00
2018-01-02T19:37:51.682Z,7.10
2018-01-02T19:40:17.641Z,7.00
2018-01-02T19:42:44.395Z,7.10
2018-01-02T19:45:11.694Z,7.20
2018-01-02T19:47:37.631Z,7.20
2018-01-02T19:50:03.563Z,7.20
2018-01-02T19:52:31.059Z,7.20
2018-01-02T19:54:57.013Z,7.10
2018-01-02T19:57:23.625Z,7.20
2018-01-02T19:59:52.216Z,7.20
2018-01-02T20:02:20.332Z,7.10
2018-01-02T20:04:47.262Z,7.20
2018-01-02T20:07:16.661Z,7.30
2018-01-02T20:09:42.754Z,7.20
2018-01-02T20:12:08.887Z,7.20
2018-01-02T20:14:35.533Z,7.20
2018-01-02T20:17:01.456Z,7.20
2018-01-02T20:19:27.608Z,7.10
2018-01-02T20:21:54.612Z,7.10
2018-01-02T20:24:20.564Z,7.00
2018-01-02T20:26:47.296Z,7.00
2018-01-02T20:29:13.349Z,7.00
2018-01-02T20:31:39.899Z,6.90
2018-01-02T20:34:05.886Z,6.80
2018-01-02T20:36:31.970Z,6.60
2018-01-02T20:38:58.243Z,6.60
2018-01-02T20:41:24.901Z,6.50
2018-01-02T20:43:50.894Z,6.30
2018-01-02T20:46:17.637Z,6.40
2018-01-02T20:48:44.898Z,6.30
2018-01-02T20:51:12.091Z,6.30
2018-01-02T20:53:38.168Z,6.30
2018-01-02T20:56:04.147Z,6.40
2018-01-02T20:58:30.244Z,6.30
2018-01-02T21:00:56.978Z,6.30
2018-01-02T21:03:23.918Z,6.30
2018-01-02T21:05:49.940Z,6.30
2018-01-02T21:08:15.876Z,6.30
2018-01-02T21:10:42.003Z,6.30
2018-01-02T21:13:07.937Z,6.30
2018-01-02T21:15:34.506Z,6.30
2018-01-02T21:18:01.297Z,6.30
2018-01-02T21:20:27.212Z,6.30
2018-01-02T21:22:53.154Z,6.30
2018-01-02T21:25:20.015Z,6.20
2018-01-02T21:27:46.309Z,6.20
2018-01-02T21:30:12.269Z,6.20
2018-01-02T21:32:38.209Z,6.40
2018-01-02T21:35:04.870Z,6.30
2018-01-02T21:37:31.703Z,6.20
2018-01-02T21:39:57.751Z,6.10
2018-01-02T21:42:23.698Z,6.20
2018-01-02T21:44:49.639Z,6.20
2018-01-02T21:47:15.600Z,6.20
2018-01-02T21:49:41.559Z,6.20
2018-01-02T21:52:08.051Z,6.10
2018-01-02T21:54:34.007Z,6.10
2018-01-02T21:57:00.599Z,6.10
2018-01-02T21:59:26.641Z,6.10
2018-01-02T22:01:52.630Z,6.00
2018-01-02T22:04:18.564Z,6.00
2018-01-02T22:06:45.270Z,6.00
2018-01-02T22:09:11.379Z,6.00
2018-01-02T22:11:37.591Z,6.00
2018-01-02T22:14:03.767Z,5.90
2018-01-02T22:16:30.539Z,5.90
2018-01-02T22:18:56.478Z,5.80
2018-01-02T22:21:23.906Z,5.90
2018-01-02T22:23:49.971Z,5.90
2018-01-02T22:26:15.914Z,6.00
2018-01-02T22:28:41.873Z,6.10
2018-01-02T22:31:09.511Z,6.00
2018-01-02T22:33:36.206Z,6.10
2018-01-02T22:36:03.045Z,6.10
2018-01-02T22:38:29.364Z,6.10
2018-01-02T22:40:55.399Z,6.10
2018-01-02T22:43:21.366Z,6.10
2018-01-02T22:45:48.586Z,6.10
2018-01-02T22:48:14.721Z,6.10
2018-01-02T22:50:40.647Z,6.10
2018-01-02T22:53:06.616Z,6.10
2018-01-02T22:55:32.630Z,6.10
2018-01-02T22:57:58.659Z,6.20
2018-01-02T23:00:25.388Z,6.20
2018-01-02T23:02:51.412Z,6.00
2018-01-02T23:05:17.777Z,6.10
2018-01-02T23:07:43.717Z,6.10
2018-01-02T23:10:09.729Z,6.20
2018-01-02T23:12:37.452Z,6.20
2018-01-02T23:15:03.919Z,6.10
2018-01-02T23:17:29.882Z,6.10
2018-01-02T23:19:55.831Z,6.10
2018-01-02T23:22:21.734Z,6.20
2018-01-02T23:24:49.074Z,6.10
2018-01-02T23:27:15.084Z,6.10
2018-01-02T23:29:41.029Z,6.10
2018-01-02T23:32:07.185Z,6.10
2018-01-02T23:34:33.289Z,6.10
2018-01-02T23:36:59.447Z,6.10
2018-01-02T23:39:26.146Z,6.10
2018-01-02T23:41:52.112Z,6.20
2018-01-02T23:44:18.074Z,6.10
2018-01-02T23:46:44.292Z,6.20
2018-01-02T23:49:10.460Z,6.10
2018-01-02T23:51:40.360Z,6.20
2018-01-02T23:54:06.313Z,6.10
2018-01-02T23:56:32.211Z,6.10
2018-01-02T23:58:58.239Z,6.10
